Terminal Aerodrome Forecast
Issued by NWS Sioux Falls, SD

Home | Current Version | Previous Version | Graphics & Text | Print | Product List | Glossary On
Versions: 1 2 3 4 5 6 7 8 9 10 11 12 13 14 15 16 17 18 19 20
886
FTUS43 KFSD 050532
TAFFSD
TAF
KFSD 050532Z 0506/0606 19005KT P6SM BKN250
     FM051000 17006KT P6SM BKN120
     FM051600 19010KT P6SM SCT025 OVC050
     FM051900 22010KT 3SM -SN BKN015 OVC025
     FM052200 31008KT 5SM -SN OVC010
     FM060100 30008KT P6SM OVC015=

USA.gov is the U.S. government's official web portal to all federal, state and local government web resources and services.